sensor_id;sensor_type;location;lat;lon;timestamp;temperature;humidity
67131;HTU21D;54051;53.464;49.532;2022-11-15T00:00:29;-2.26;58.33
67131;HTU21D;54051;53.464;49.532;2022-11-15T00:02:55;-2.26;58.24
67131;HTU21D;54051;53.464;49.532;2022-11-15T00:05:21;-2.30;58.56
67131;HTU21D;54051;53.464;49.532;2022-11-15T00:07:47;-2.36;58.78
67131;HTU21D;54051;53.464;49.532;2022-11-15T00:10:13;-2.31;59.04
67131;HTU21D;54051;53.464;49.532;2022-11-15T00:12:39;-2.29;58.50
67131;HTU21D;54051;53.464;49.532;2022-11-15T00:15:06;-2.32;59.09
67131;HTU21D;54051;53.464;49.532;2022-11-15T00:17:32;-2.38;58.47
67131;HTU21D;54051;53.464;49.532;2022-11-15T00:19:58;-2.38;58.96
67131;HTU21D;54051;53.464;49.532;2022-11-15T00:22:24;-2.33;59.10
67131;HTU21D;54051;53.464;49.532;2022-11-15T00:24:50;-2.30;58.67
67131;HTU21D;54051;53.464;49.532;2022-11-15T00:27:16;-2.32;58.73
67131;HTU21D;54051;53.464;49.532;2022-11-15T00:29:42;-2.37;59.18
67131;HTU21D;54051;53.464;49.532;2022-11-15T00:32:12;-2.34;58.45
67131;HTU21D;54051;53.464;49.532;2022-11-15T00:34:38;-2.38;59.19
67131;HTU21D;54051;53.464;49.532;2022-11-15T00:37:04;-2.30;59.14
67131;HTU21D;54051;53.464;49.532;2022-11-15T00:39:31;-2.30;59.05
67131;HTU21D;54051;53.464;49.532;2022-11-15T00:41:57;-2.31;58.96
67131;HTU21D;54051;53.464;49.532;2022-11-15T00:44:23;-2.32;59.25
67131;HTU21D;54051;53.464;49.532;2022-11-15T00:46:49;-2.29;58.64
67131;HTU21D;54051;53.464;49.532;2022-11-15T00:49:15;-2.29;58.04
67131;HTU21D;54051;53.464;49.532;2022-11-15T00:51:41;-2.27;58.17
67131;HTU21D;54051;53.464;49.532;2022-11-15T00:54:07;-2.29;58.68
67131;HTU21D;54051;53.464;49.532;2022-11-15T00:56:33;-2.29;58.67
67131;HTU21D;54051;53.464;49.532;2022-11-15T00:58:59;-2.35;58.99
67131;HTU21D;54051;53.464;49.532;2022-11-15T01:01:25;-2.37;59.18
67131;HTU21D;54051;53.464;49.532;2022-11-15T01:03:51;-2.44;59.54
67131;HTU21D;54051;53.464;49.532;2022-11-15T01:06:17;-2.42;59.50
67131;HTU21D;54051;53.464;49.532;2022-11-15T01:08:43;-2.39;59.06
67131;HTU21D;54051;53.464;49.532;2022-11-15T01:11:11;-2.41;59.27
67131;HTU21D;54051;53.464;49.532;2022-11-15T01:13:38;-2.35;59.58
67131;HTU21D;54051;53.464;49.532;2022-11-15T01:16:08;-2.33;59.70
67131;HTU21D;54051;53.464;49.532;2022-11-15T01:18:35;-2.32;59.86
67131;HTU21D;54051;53.464;49.532;2022-11-15T01:21:08;-2.30;59.79
67131;HTU21D;54051;53.464;49.532;2022-11-15T01:23:35;-2.22;60.05
67131;HTU21D;54051;53.464;49.532;2022-11-15T01:26:02;-2.18;60.01
67131;HTU21D;54051;53.464;49.532;2022-11-15T01:28:36;-2.13;59.34
67131;HTU21D;54051;53.464;49.532;2022-11-15T01:31:05;-2.20;59.97
67131;HTU21D;54051;53.464;49.532;2022-11-15T01:33:34;-2.19;59.48
67131;HTU21D;54051;53.464;49.532;2022-11-15T01:36:09;-2.18;59.63
67131;HTU21D;54051;53.464;49.532;2022-11-15T01:38:35;-2.12;60.35
67131;HTU21D;54051;53.464;49.532;2022-11-15T01:41:01;-2.06;60.38
67131;HTU21D;54051;53.464;49.532;2022-11-15T01:43:33;-2.07;58.89
67131;HTU21D;54051;53.464;49.532;2022-11-15T01:48:37;-2.00;58.13
67131;HTU21D;54051;53.464;49.532;2022-11-15T01:51:06;-1.92;57.62
67131;HTU21D;54051;53.464;49.532;2022-11-15T01:53:36;-1.91;57.68
67131;HTU21D;54051;53.464;49.532;2022-11-15T01:56:06;-2.01;57.24
67131;HTU21D;54051;53.464;49.532;2022-11-15T01:58:33;-2.04;57.30
67131;HTU21D;54051;53.464;49.532;2022-11-15T02:00:59;-2.02;57.89
67131;HTU21D;54051;53.464;49.532;2022-11-15T02:03:58;-2.03;58.25
67131;HTU21D;54051;53.464;49.532;2022-11-15T02:06:25;-2.03;57.98
67131;HTU21D;54051;53.464;49.532;2022-11-15T02:08:51;-2.05;58.58
67131;HTU21D;54051;53.464;49.532;2022-11-15T02:11:17;-2.12;58.94
67131;HTU21D;54051;53.464;49.532;2022-11-15T02:13:44;-2.15;58.80
67131;HTU21D;54051;53.464;49.532;2022-11-15T02:27:09;-2.18;59.51
67131;HTU21D;54051;53.464;49.532;2022-11-15T02:32:48;-2.15;59.64
67131;HTU21D;54051;53.464;49.532;2022-11-15T02:35:40;-2.12;59.89
67131;HTU21D;54051;53.464;49.532;2022-11-15T02:38:22;-2.05;58.96
67131;HTU21D;54051;53.464;49.532;2022-11-15T02:44:01;-2.12;59.84
67131;HTU21D;54051;53.464;49.532;2022-11-15T02:49:28;-2.13;59.27
67131;HTU21D;54051;53.464;49.532;2022-11-15T02:51:55;-2.18;59.07
67131;HTU21D;54051;53.464;49.532;2022-11-15T02:54:23;-2.17;59.27
67131;HTU21D;54051;53.464;49.532;2022-11-15T02:56:53;-2.17;59.69
67131;HTU21D;54051;53.464;49.532;2022-11-15T03:02:44;-2.14;59.50
67131;HTU21D;54051;53.464;49.532;2022-11-15T03:11:19;-2.09;59.94
67131;HTU21D;54051;53.464;49.532;2022-11-15T03:13:59;-2.20;59.78
67131;HTU21D;54051;53.464;49.532;2022-11-15T03:16:57;-2.21;60.24
67131;HTU21D;54051;53.464;49.532;2022-11-15T03:19:37;-2.23;60.45
67131;HTU21D;54051;53.464;49.532;2022-11-15T03:22:13;-2.14;60.70
67131;HTU21D;54051;53.464;49.532;2022-11-15T03:28:05;-2.07;60.67
67131;HTU21D;54051;53.464;49.532;2022-11-15T03:30:34;-2.05;60.14
67131;HTU21D;54051;53.464;49.532;2022-11-15T03:33:04;-2.10;60.44
67131;HTU21D;54051;53.464;49.532;2022-11-15T03:35:36;-2.14;59.56
67131;HTU21D;54051;53.464;49.532;2022-11-15T03:38:14;-2.16;59.72
67131;HTU21D;54051;53.464;49.532;2022-11-15T03:40:45;-2.22;60.64
67131;HTU21D;54051;53.464;49.532;2022-11-15T03:46:07;-2.22;60.24
67131;HTU21D;54051;53.464;49.532;2022-11-15T03:49:07;-2.26;60.96
67131;HTU21D;54051;53.464;49.532;2022-11-15T03:51:35;-2.26;61.44
67131;HTU21D;54051;53.464;49.532;2022-11-15T03:54:03;-2.26;60.39
67131;HTU21D;54051;53.464;49.532;2022-11-15T03:56:32;-2.32;60.19
67131;HTU21D;54051;53.464;49.532;2022-11-15T03:59:00;-2.29;59.47
67131;HTU21D;54051;53.464;49.532;2022-11-15T04:01:26;-2.29;59.61
67131;HTU21D;54051;53.464;49.532;2022-11-15T04:03:52;-2.29;59.89
67131;HTU21D;54051;53.464;49.532;2022-11-15T04:06:18;-2.24;59.93
67131;HTU21D;54051;53.464;49.532;2022-11-15T04:08:44;-2.17;59.82
67131;HTU21D;54051;53.464;49.532;2022-11-15T04:11:10;-2.17;60.13
67131;HTU21D;54051;53.464;49.532;2022-11-15T04:13:36;-2.14;60.08
67131;HTU21D;54051;53.464;49.532;2022-11-15T04:16:07;-2.15;60.28
67131;HTU21D;54051;53.464;49.532;2022-11-15T04:18:33;-2.21;60.74
67131;HTU21D;54051;53.464;49.532;2022-11-15T04:20:59;-2.17;60.73
67131;HTU21D;54051;53.464;49.532;2022-11-15T04:23:43;-2.13;61.56
67131;HTU21D;54051;53.464;49.532;2022-11-15T04:26:28;-2.20;62.53
67131;HTU21D;54051;53.464;49.532;2022-11-15T04:28:54;-2.21;62.96
67131;HTU21D;54051;53.464;49.532;2022-11-15T04:31:38;-2.15;63.18
67131;HTU21D;54051;53.464;49.532;2022-11-15T04:34:04;-2.13;64.04
67131;HTU21D;54051;53.464;49.532;2022-11-15T04:36:30;-2.26;66.79
67131;HTU21D;54051;53.464;49.532;2022-11-15T04:39:15;-2.30;67.50
67131;HTU21D;54051;53.464;49.532;2022-11-15T04:41:41;-2.28;67.76
67131;HTU21D;54051;53.464;49.532;2022-11-15T04:44:07;-2.23;67.46
67131;HTU21D;54051;53.464;49.532;2022-11-15T04:46:38;-2.19;67.58
67131;HTU21D;54051;53.464;49.532;2022-11-15T04:49:04;-2.15;65.85
67131;HTU21D;54051;53.464;49.532;2022-11-15T04:51:30;-2.07;65.28
67131;HTU21D;54051;53.464;49.532;2022-11-15T04:53:56;-2.07;66.69
67131;HTU21D;54051;53.464;49.532;2022-11-15T04:56:22;-2.15;66.72
67131;HTU21D;54051;53.464;49.532;2022-11-15T04:58:51;-2.21;66.80
67131;HTU21D;54051;53.464;49.532;2022-11-15T05:01:17;-2.21;67.31
67131;HTU21D;54051;53.464;49.532;2022-11-15T05:03:44;-2.15;66.91
67131;HTU21D;54051;53.464;49.532;2022-11-15T05:06:29;-2.04;66.28
67131;HTU21D;54051;53.464;49.532;2022-11-15T05:08:55;-2.04;65.62
67131;HTU21D;54051;53.464;49.532;2022-11-15T05:11:22;-1.95;65.45
67131;HTU21D;54051;53.464;49.532;2022-11-15T05:14:26;-1.97;63.36
67131;HTU21D;54051;53.464;49.532;2022-11-15T05:16:52;-1.91;62.55
67131;HTU21D;54051;53.464;49.532;2022-11-15T05:19:18;-1.91;62.03
67131;HTU21D;54051;53.464;49.532;2022-11-15T05:21:44;-1.79;60.91
67131;HTU21D;54051;53.464;49.532;2022-11-15T05:24:11;-1.68;59.87
67131;HTU21D;54051;53.464;49.532;2022-11-15T05:26:37;-1.70;58.68
67131;HTU21D;54051;53.464;49.532;2022-11-15T05:29:03;-1.68;58.70
67131;HTU21D;54051;53.464;49.532;2022-11-15T05:31:29;-1.70;58.67
67131;HTU21D;54051;53.464;49.532;2022-11-15T05:33:56;-1.68;58.06
67131;HTU21D;54051;53.464;49.532;2022-11-15T05:36:42;-1.60;57.80
67131;HTU21D;54051;53.464;49.532;2022-11-15T05:39:09;-1.53;56.88
67131;HTU21D;54051;53.464;49.532;2022-11-15T05:41:50;-1.38;56.55
67131;HTU21D;54051;53.464;49.532;2022-11-15T05:44:21;-1.25;56.24
67131;HTU21D;54051;53.464;49.532;2022-11-15T05:46:49;-1.32;56.19
67131;HTU21D;54051;53.464;49.532;2022-11-15T05:49:20;-1.34;57.05
67131;HTU21D;54051;53.464;49.532;2022-11-15T05:51:48;-1.18;56.61
67131;HTU21D;54051;53.464;49.532;2022-11-15T05:54:16;-0.89;56.23
67131;HTU21D;54051;53.464;49.532;2022-11-15T05:56:42;-0.56;56.06
67131;HTU21D;54051;53.464;49.532;2022-11-15T05:59:09;-0.22;54.17
67131;HTU21D;54051;53.464;49.532;2022-11-15T06:01:39;-0.47;54.76
67131;HTU21D;54051;53.464;49.532;2022-11-15T06:04:06;-0.72;54.31
67131;HTU21D;54051;53.464;49.532;2022-11-15T06:06:32;-0.98;55.36
67131;HTU21D;54051;53.464;49.532;2022-11-15T06:08:58;-1.08;55.70
67131;HTU21D;54051;53.464;49.532;2022-11-15T06:11:24;-0.91;55.50
67131;HTU21D;54051;53.464;49.532;2022-11-15T06:13:50;-0.74;54.99
67131;HTU21D;54051;53.464;49.532;2022-11-15T06:16:16;-0.55;54.48
67131;HTU21D;54051;53.464;49.532;2022-11-15T06:18:42;-0.37;53.41
67131;HTU21D;54051;53.464;49.532;2022-11-15T06:21:08;-0.39;53.86
67131;HTU21D;54051;53.464;49.532;2022-11-15T06:23:35;-0.46;53.51
67131;HTU21D;54051;53.464;49.532;2022-11-15T06:26:02;-0.55;54.24
67131;HTU21D;54051;53.464;49.532;2022-11-15T06:28:32;-0.45;54.66
67131;HTU21D;54051;53.464;49.532;2022-11-15T06:31:06;-0.37;54.13
67131;HTU21D;54051;53.464;49.532;2022-11-15T06:33:33;-0.27;52.43
67131;HTU21D;54051;53.464;49.532;2022-11-15T06:36:10;-0.09;51.75
67131;HTU21D;54051;53.464;49.532;2022-11-15T06:38:39;-0.10;51.64
67131;HTU21D;54051;53.464;49.532;2022-11-15T06:41:07;-0.27;50.74
67131;HTU21D;54051;53.464;49.532;2022-11-15T06:43:34;-0.42;51.68
67131;HTU21D;54051;53.464;49.532;2022-11-15T06:46:02;-0.24;51.07
67131;HTU21D;54051;53.464;49.532;2022-11-15T06:48:29;-0.11;49.92
67131;HTU21D;54051;53.464;49.532;2022-11-15T06:50:57;0.07;48.86
67131;HTU21D;54051;53.464;49.532;2022-11-15T06:53:24;0.05;48.07
67131;HTU21D;54051;53.464;49.532;2022-11-15T06:55:50;-0.02;48.63
67131;HTU21D;54051;53.464;49.532;2022-11-15T06:58:17;-0.07;48.28
67131;HTU21D;54051;53.464;49.532;2022-11-15T07:00:43;-0.23;48.44
67131;HTU21D;54051;53.464;49.532;2022-11-15T07:03:10;-0.30;48.28
67131;HTU21D;54051;53.464;49.532;2022-11-15T07:05:36;-0.35;48.02
67131;HTU21D;54051;53.464;49.532;2022-11-15T07:08:02;-0.19;48.86
67131;HTU21D;54051;53.464;49.532;2022-11-15T07:10:29;-0.02;48.55
67131;HTU21D;54051;53.464;49.532;2022-11-15T07:12:55;-0.14;47.94
67131;HTU21D;54051;53.464;49.532;2022-11-15T07:15:24;-0.27;46.29
67131;HTU21D;54051;53.464;49.532;2022-11-15T07:17:50;-0.30;45.87
67131;HTU21D;54051;53.464;49.532;2022-11-15T07:20:17;-0.37;45.96
67131;HTU21D;54051;53.464;49.532;2022-11-15T07:22:43;-0.31;45.11
67131;HTU21D;54051;53.464;49.532;2022-11-15T07:25:11;-0.41;46.71
67131;HTU21D;54051;53.464;49.532;2022-11-15T07:27:37;-0.45;45.78
67131;HTU21D;54051;53.464;49.532;2022-11-15T07:30:04;-0.38;47.72
67131;HTU21D;54051;53.464;49.532;2022-11-15T07:32:31;-0.24;46.64
67131;HTU21D;54051;53.464;49.532;2022-11-15T07:34:57;-0.21;46.46
67131;HTU21D;54051;53.464;49.532;2022-11-15T07:37:23;-0.32;46.57
67131;HTU21D;54051;53.464;49.532;2022-11-15T07:39:49;-0.27;46.38
67131;HTU21D;54051;53.464;49.532;2022-11-15T07:42:14;-0.24;46.31
67131;HTU21D;54051;53.464;49.532;2022-11-15T07:44:59;-0.34;46.80
67131;HTU21D;54051;53.464;49.532;2022-11-15T07:47:25;-0.49;48.22
67131;HTU21D;54051;53.464;49.532;2022-11-15T07:49:53;-0.64;49.49
67131;HTU21D;54051;53.464;49.532;2022-11-15T07:52:19;-0.58;49.41
67131;HTU21D;54051;53.464;49.532;2022-11-15T07:54:45;-0.46;49.08
67131;HTU21D;54051;53.464;49.532;2022-11-15T07:57:11;-0.35;49.30
67131;HTU21D;54051;53.464;49.532;2022-11-15T07:59:37;-0.39;49.54
67131;HTU21D;54051;53.464;49.532;2022-11-15T08:02:03;-0.44;49.95
67131;HTU21D;54051;53.464;49.532;2022-11-15T08:04:29;-0.51;51.13
67131;HTU21D;54051;53.464;49.532;2022-11-15T08:06:55;-0.34;51.05
67131;HTU21D;54051;53.464;49.532;2022-11-15T08:09:22;-0.27;51.30
67131;HTU21D;54051;53.464;49.532;2022-11-15T08:11:48;-0.21;51.08
67131;HTU21D;54051;53.464;49.532;2022-11-15T08:14:14;-0.34;51.30
67131;HTU21D;54051;53.464;49.532;2022-11-15T08:16:40;-0.37;51.77
67131;HTU21D;54051;53.464;49.532;2022-11-15T08:19:06;-0.41;52.40
67131;HTU21D;54051;53.464;49.532;2022-11-15T08:21:32;-0.42;52.46
67131;HTU21D;54051;53.464;49.532;2022-11-15T08:23:58;-0.36;52.19
67131;HTU21D;54051;53.464;49.532;2022-11-15T08:26:24;-0.29;50.85
67131;HTU21D;54051;53.464;49.532;2022-11-15T08:28:53;-0.35;47.90
67131;HTU21D;54051;53.464;49.532;2022-11-15T08:31:19;-0.46;46.42
67131;HTU21D;54051;53.464;49.532;2022-11-15T08:33:45;-0.58;46.69
67131;HTU21D;54051;53.464;49.532;2022-11-15T08:36:16;-0.50;46.61
67131;HTU21D;54051;53.464;49.532;2022-11-15T08:38:43;-0.50;48.11
67131;HTU21D;54051;53.464;49.532;2022-11-15T08:41:16;-0.57;49.15
67131;HTU21D;54051;53.464;49.532;2022-11-15T08:43:45;-0.57;49.79
67131;HTU21D;54051;53.464;49.532;2022-11-15T08:46:12;-0.46;50.18
67131;HTU21D;54051;53.464;49.532;2022-11-15T08:48:39;-0.25;49.49
67131;HTU21D;54051;53.464;49.532;2022-11-15T08:51:05;-0.17;48.70
67131;HTU21D;54051;53.464;49.532;2022-11-15T08:53:34;-0.20;46.77
67131;HTU21D;54051;53.464;49.532;2022-11-15T08:56:01;-0.21;46.34
67131;HTU21D;54051;53.464;49.532;2022-11-15T08:58:30;-0.28;46.92
67131;HTU21D;54051;53.464;49.532;2022-11-15T09:00:56;-0.28;47.20
67131;HTU21D;54051;53.464;49.532;2022-11-15T09:03:22;-0.16;46.74
67131;HTU21D;54051;53.464;49.532;2022-11-15T09:05:55;-0.27;47.48
67131;HTU21D;54051;53.464;49.532;2022-11-15T09:08:21;-0.35;48.65
67131;HTU21D;54051;53.464;49.532;2022-11-15T09:10:50;-0.52;50.50
67131;HTU21D;54051;53.464;49.532;2022-11-15T09:13:16;-0.52;51.31
67131;HTU21D;54051;53.464;49.532;2022-11-15T09:15:48;-0.54;50.63
67131;HTU21D;54051;53.464;49.532;2022-11-15T09:18:23;-0.56;51.17
67131;HTU21D;54051;53.464;49.532;2022-11-15T09:20:59;-0.59;50.31
67131;HTU21D;54051;53.464;49.532;2022-11-15T09:23:28;-0.62;51.82
67131;HTU21D;54051;53.464;49.532;2022-11-15T09:26:07;-0.56;51.67
67131;HTU21D;54051;53.464;49.532;2022-11-15T09:28:37;-0.37;50.40
67131;HTU21D;54051;53.464;49.532;2022-11-15T09:31:05;-0.21;49.49
67131;HTU21D;54051;53.464;49.532;2022-11-15T09:33:31;-0.22;46.44
67131;HTU21D;54051;53.464;49.532;2022-11-15T09:36:05;-0.28;45.84
67131;HTU21D;54051;53.464;49.532;2022-11-15T09:38:32;-0.45;47.51
67131;HTU21D;54051;53.464;49.532;2022-11-15T09:46:52;-0.29;49.38
67131;HTU21D;54051;53.464;49.532;2022-11-15T09:49:23;-0.30;49.84
67131;HTU21D;54051;53.464;49.532;2022-11-15T09:51:51;-0.32;50.82
67131;HTU21D;54051;53.464;49.532;2022-11-15T09:57:17;-0.28;50.78
67131;HTU21D;54051;53.464;49.532;2022-11-15T10:03:21;-0.19;49.39
67131;HTU21D;54051;53.464;49.532;2022-11-15T10:05:55;-0.19;49.02
67131;HTU21D;54051;53.464;49.532;2022-11-15T10:10:57;-0.45;50.54
67131;HTU21D;54051;53.464;49.532;2022-11-15T10:13:27;-0.46;50.88
67131;HTU21D;54051;53.464;49.532;2022-11-15T10:19:05;-0.50;51.33
67131;HTU21D;54051;53.464;49.532;2022-11-15T10:21:45;-0.41;50.99
67131;HTU21D;54051;53.464;49.532;2022-11-15T10:24:19;-0.46;49.89
67131;HTU21D;54051;53.464;49.532;2022-11-15T10:26:47;-0.45;49.89
67131;HTU21D;54051;53.464;49.532;2022-11-15T10:29:21;-0.53;50.90
67131;HTU21D;54051;53.464;49.532;2022-11-15T10:31:48;-0.56;51.55
67131;HTU21D;54051;53.464;49.532;2022-11-15T10:34:22;-0.56;51.76
67131;HTU21D;54051;53.464;49.532;2022-11-15T10:36:56;-0.52;50.75
67131;HTU21D;54051;53.464;49.532;2022-11-15T10:39:23;-0.60;51.40
67131;HTU21D;54051;53.464;49.532;2022-11-15T10:41:50;-0.58;50.76
67131;HTU21D;54051;53.464;49.532;2022-11-15T10:46:44;-0.59;51.24
67131;HTU21D;54051;53.464;49.532;2022-11-15T10:49:22;-0.59;50.64
67131;HTU21D;54051;53.464;49.532;2022-11-15T10:51:58;-0.53;50.97
67131;HTU21D;54051;53.464;49.532;2022-11-15T10:54:37;-0.47;50.23
67131;HTU21D;54051;53.464;49.532;2022-11-15T10:57:08;-0.50;49.87
67131;HTU21D;54051;53.464;49.532;2022-11-15T10:59:43;-0.55;49.64
67131;HTU21D;54051;53.464;49.532;2022-11-15T11:02:38;-0.67;50.31
67131;HTU21D;54051;53.464;49.532;2022-11-15T11:08:00;-0.61;50.94
67131;HTU21D;54051;53.464;49.532;2022-11-15T11:10:27;-0.56;50.56
67131;HTU21D;54051;53.464;49.532;2022-11-15T11:12:53;-0.65;50.78
67131;HTU21D;54051;53.464;49.532;2022-11-15T11:15:19;-0.76;50.94
67131;HTU21D;54051;53.464;49.532;2022-11-15T11:20:40;-0.82;51.73
67131;HTU21D;54051;53.464;49.532;2022-11-15T11:37:56;-0.68;50.98
67131;HTU21D;54051;53.464;49.532;2022-11-15T11:40:43;-0.76;52.59
67131;HTU21D;54051;53.464;49.532;2022-11-15T11:46:29;-0.74;50.43
67131;HTU21D;54051;53.464;49.532;2022-11-15T11:49:18;-0.72;51.39
67131;HTU21D;54051;53.464;49.532;2022-11-15T11:55:04;-0.70;51.53
67131;HTU21D;54051;53.464;49.532;2022-11-15T11:57:38;-0.71;51.93
67131;HTU21D;54051;53.464;49.532;2022-11-15T12:00:21;-0.75;51.76
67131;HTU21D;54051;53.464;49.532;2022-11-15T12:05:54;-0.94;51.32
67131;HTU21D;54051;53.464;49.532;2022-11-15T12:08:31;-1.03;51.14
67131;HTU21D;54051;53.464;49.532;2022-11-15T12:11:06;-1.06;51.33
67131;HTU21D;54051;53.464;49.532;2022-11-15T12:13:34;-1.12;51.46
67131;HTU21D;54051;53.464;49.532;2022-11-15T12:16:13;-1.16;51.47
67131;HTU21D;54051;53.464;49.532;2022-11-15T12:18:41;-1.15;51.62
67131;HTU21D;54051;53.464;49.532;2022-11-15T12:24:06;-1.17;51.33
67131;HTU21D;54051;53.464;49.532;2022-11-15T12:26:39;-1.10;51.33
67131;HTU21D;54051;53.464;49.532;2022-11-15T12:29:16;-1.13;51.59
67131;HTU21D;54051;53.464;49.532;2022-11-15T12:31:48;-1.05;51.99
67131;HTU21D;54051;53.464;49.532;2022-11-15T12:36:48;-1.18;52.70
67131;HTU21D;54051;53.464;49.532;2022-11-15T12:39:16;-1.13;52.69
67131;HTU21D;54051;53.464;49.532;2022-11-15T13:17:49;-1.27;54.52
67131;HTU21D;54051;53.464;49.532;2022-11-15T13:20:19;-1.23;54.84
67131;HTU21D;54051;53.464;49.532;2022-11-15T13:28:21;-1.18;55.65
67131;HTU21D;54051;53.464;49.532;2022-11-15T13:30:54;-1.12;55.70
67131;HTU21D;54051;53.464;49.532;2022-11-15T13:33:35;-1.18;56.11
67131;HTU21D;54051;53.464;49.532;2022-11-15T13:36:22;-1.10;56.07
67131;HTU21D;54051;53.464;49.532;2022-11-15T13:39:03;-1.12;56.26
67131;HTU21D;54051;53.464;49.532;2022-11-15T13:41:32;-1.24;57.06
67131;HTU21D;54051;53.464;49.532;2022-11-15T13:44:00;-1.24;57.77
67131;HTU21D;54051;53.464;49.532;2022-11-15T13:46:28;-1.20;58.04
67131;HTU21D;54051;53.464;49.532;2022-11-15T13:48:58;-1.18;57.80
67131;HTU21D;54051;53.464;49.532;2022-11-15T13:51:35;-1.15;58.44
67131;HTU21D;54051;53.464;49.532;2022-11-15T13:56:52;-1.15;58.51
67131;HTU21D;54051;53.464;49.532;2022-11-15T13:59:35;-1.14;58.60
67131;HTU21D;54051;53.464;49.532;2022-11-15T14:02:11;-1.15;58.20
67131;HTU21D;54051;53.464;49.532;2022-11-15T14:04:45;-1.19;58.37
67131;HTU21D;54051;53.464;49.532;2022-11-15T14:07:17;-1.23;58.62
67131;HTU21D;54051;53.464;49.532;2022-11-15T14:09:44;-1.28;59.12
67131;HTU21D;54051;53.464;49.532;2022-11-15T14:12:33;-1.23;59.25
67131;HTU21D;54051;53.464;49.532;2022-11-15T14:15:18;-1.19;58.82
67131;HTU21D;54051;53.464;49.532;2022-11-15T14:17:44;-1.16;59.87
67131;HTU21D;54051;53.464;49.532;2022-11-15T14:20:40;-1.04;58.89
67131;HTU21D;54051;53.464;49.532;2022-11-15T14:23:24;-1.03;59.02
67131;HTU21D;54051;53.464;49.532;2022-11-15T14:25:55;-0.98;58.97
67131;HTU21D;54051;53.464;49.532;2022-11-15T14:30:52;-0.98;59.59
67131;HTU21D;54051;53.464;49.532;2022-11-15T14:33:37;-0.88;59.48
67131;HTU21D;54051;53.464;49.532;2022-11-15T14:38:57;-0.83;59.34
67131;HTU21D;54051;53.464;49.532;2022-11-15T14:41:24;-0.86;59.11
67131;HTU21D;54051;53.464;49.532;2022-11-15T14:43:52;-0.86;58.73
67131;HTU21D;54051;53.464;49.532;2022-11-15T14:46:18;-0.97;60.12
67131;HTU21D;54051;53.464;49.532;2022-11-15T14:48:45;-0.93;60.70
67131;HTU21D;54051;53.464;49.532;2022-11-15T14:51:16;-0.99;59.78
67131;HTU21D;54051;53.464;49.532;2022-11-15T14:53:43;-0.91;59.97
67131;HTU21D;54051;53.464;49.532;2022-11-15T14:56:10;-0.90;60.07
67131;HTU21D;54051;53.464;49.532;2022-11-15T14:58:36;-0.85;60.07
67131;HTU21D;54051;53.464;49.532;2022-11-15T15:01:13;-0.83;60.10
67131;HTU21D;54051;53.464;49.532;2022-11-15T15:03:42;-0.87;59.93
67131;HTU21D;54051;53.464;49.532;2022-11-15T15:06:12;-0.96;60.34
67131;HTU21D;54051;53.464;49.532;2022-11-15T15:08:40;-1.04;60.71
67131;HTU21D;54051;53.464;49.532;2022-11-15T15:11:14;-0.99;60.76
67131;HTU21D;54051;53.464;49.532;2022-11-15T15:13:41;-0.94;61.84
67131;HTU21D;54051;53.464;49.532;2022-11-15T15:16:07;-0.91;60.77
67131;HTU21D;54051;53.464;49.532;2022-11-15T15:18:34;-0.95;59.63
67131;HTU21D;54051;53.464;49.532;2022-11-15T15:21:00;-0.97;59.58
67131;HTU21D;54051;53.464;49.532;2022-11-15T15:23:32;-0.94;60.63
67131;HTU21D;54051;53.464;49.532;2022-11-15T15:25:59;-0.94;60.67
67131;HTU21D;54051;53.464;49.532;2022-11-15T15:28:25;-0.95;61.73
67131;HTU21D;54051;53.464;49.532;2022-11-15T15:30:51;-0.97;63.76
67131;HTU21D;54051;53.464;49.532;2022-11-15T15:33:18;-1.03;65.06
67131;HTU21D;54051;53.464;49.532;2022-11-15T15:35:44;-1.04;65.49
67131;HTU21D;54051;53.464;49.532;2022-11-15T15:38:13;-1.03;65.39
67131;HTU21D;54051;53.464;49.532;2022-11-15T15:40:40;-1.03;64.86
67131;HTU21D;54051;53.464;49.532;2022-11-15T15:43:06;-1.08;65.01
67131;HTU21D;54051;53.464;49.532;2022-11-15T15:45:37;-1.01;64.97
67131;HTU21D;54051;53.464;49.532;2022-11-15T15:48:04;-1.02;64.45
67131;HTU21D;54051;53.464;49.532;2022-11-15T15:50:34;-1.08;64.92
67131;HTU21D;54051;53.464;49.532;2022-11-15T15:53:02;-1.04;64.13
67131;HTU21D;54051;53.464;49.532;2022-11-15T15:55:28;-0.99;62.04
67131;HTU21D;54051;53.464;49.532;2022-11-15T15:57:55;-1.03;62.55
67131;HTU21D;54051;53.464;49.532;2022-11-15T16:00:23;-1.02;62.80
67131;HTU21D;54051;53.464;49.532;2022-11-15T16:02:50;-1.05;61.83
67131;HTU21D;54051;53.464;49.532;2022-11-15T16:05:17;-1.06;60.94
67131;HTU21D;54051;53.464;49.532;2022-11-15T16:07:43;-1.08;59.16
67131;HTU21D;54051;53.464;49.532;2022-11-15T16:10:33;-1.09;59.53
67131;HTU21D;54051;53.464;49.532;2022-11-15T16:13:02;-1.02;59.14
67131;HTU21D;54051;53.464;49.532;2022-11-15T16:15:30;-0.97;58.50
67131;HTU21D;54051;53.464;49.532;2022-11-15T16:17:57;-1.00;57.90
67131;HTU21D;54051;53.464;49.532;2022-11-15T16:20:43;-1.06;57.53
67131;HTU21D;54051;53.464;49.532;2022-11-15T16:23:12;-1.08;57.75
67131;HTU21D;54051;53.464;49.532;2022-11-15T16:25:48;-0.99;57.42
67131;HTU21D;54051;53.464;49.532;2022-11-15T16:28:24;-1.00;56.19
67131;HTU21D;54051;53.464;49.532;2022-11-15T16:33:25;-1.14;56.38
67131;HTU21D;54051;53.464;49.532;2022-11-15T16:35:52;-1.18;56.26
67131;HTU21D;54051;53.464;49.532;2022-11-15T16:38:18;-1.13;56.12
67131;HTU21D;54051;53.464;49.532;2022-11-15T16:40:44;-1.12;56.44
67131;HTU21D;54051;53.464;49.532;2022-11-15T16:43:10;-1.14;56.62
67131;HTU21D;54051;53.464;49.532;2022-11-15T16:45:36;-1.10;56.48
67131;HTU21D;54051;53.464;49.532;2022-11-15T16:48:03;-1.06;56.71
67131;HTU21D;54051;53.464;49.532;2022-11-15T16:50:31;-1.09;57.13
67131;HTU21D;54051;53.464;49.532;2022-11-15T16:53:00;-1.05;58.59
67131;HTU21D;54051;53.464;49.532;2022-11-15T16:55:28;-1.09;62.95
67131;HTU21D;54051;53.464;49.532;2022-11-15T16:57:55;-1.16;64.43
67131;HTU21D;54051;53.464;49.532;2022-11-15T17:00:24;-1.31;65.59
67131;HTU21D;54051;53.464;49.532;2022-11-15T17:02:51;-1.30;65.40
67131;HTU21D;54051;53.464;49.532;2022-11-15T17:05:20;-1.45;65.98
67131;HTU21D;54051;53.464;49.532;2022-11-15T17:07:48;-1.52;66.54
67131;HTU21D;54051;53.464;49.532;2022-11-15T17:10:15;-1.52;65.82
67131;HTU21D;54051;53.464;49.532;2022-11-15T17:12:41;-1.49;65.40
67131;HTU21D;54051;53.464;49.532;2022-11-15T17:15:11;-1.56;65.75
67131;HTU21D;54051;53.464;49.532;2022-11-15T17:17:37;-1.64;65.43
67131;HTU21D;54051;53.464;49.532;2022-11-15T17:20:03;-1.64;65.61
67131;HTU21D;54051;53.464;49.532;2022-11-15T17:22:37;-1.54;65.73
67131;HTU21D;54051;53.464;49.532;2022-11-15T17:25:03;-1.45;63.66
67131;HTU21D;54051;53.464;49.532;2022-11-15T17:27:30;-1.40;62.83
67131;HTU21D;54051;53.464;49.532;2022-11-15T17:29:56;-1.39;61.81
67131;HTU21D;54051;53.464;49.532;2022-11-15T17:32:22;-1.39;61.12
67131;HTU21D;54051;53.464;49.532;2022-11-15T17:34:48;-1.40;59.90
67131;HTU21D;54051;53.464;49.532;2022-11-15T17:37:14;-1.40;60.20
67131;HTU21D;54051;53.464;49.532;2022-11-15T17:39:40;-1.38;60.27
67131;HTU21D;54051;53.464;49.532;2022-11-15T17:42:06;-1.34;60.07
67131;HTU21D;54051;53.464;49.532;2022-11-15T17:44:32;-1.29;60.06